Time;durP1;ratioP1;P1;durP2;ratioP2;P2;SDS_P1;SDS_P2;PMS_P1;PMS_P2;Temp;Humidity;BMP_temperature;BMP_pressure;BME280_temperature;BME280_humidity;BME280_pressure;Samples;Min_cycle;Max_cycle;Signal;HPM_P1;HPM_P2
2023/04/11 00:08:22;;;;;;;1999.90;999.90;;;9.60;99.90;;;;;;6709446;88;20211;-77
2023/04/11 00:18:24;;;;;;;1999.90;999.90;;;9.60;99.90;;;;;;6700867;88;20357;-79
2023/04/11 00:28:25;;;;;;;1999.90;999.90;;;9.60;99.90;;;;;;6706439;88;20266;-78
2023/04/11 00:38:25;;;;;;;1999.90;999.90;;;9.60;99.90;;;;;;6717497;88;20199;-79
2023/04/11 00:48:27;;;;;;;1999.90;999.90;;;9.70;99.90;;;;;;6708582;88;20255;-78
2023/04/11 00:58:28;;;;;;;1999.90;999.90;;;9.60;99.90;;;;;;6681720;88;20220;-78
2023/04/11 01:08:29;;;;;;;1999.90;999.90;;;9.60;99.90;;;;;;6654375;89;20270;-78
2023/04/11 01:18:30;;;;;;;1999.90;999.90;;;9.60;99.90;;;;;;6665726;89;20196;-78
2023/04/11 01:28:30;;;;;;;1999.90;999.90;;;9.70;99.90;;;;;;6653476;89;20201;-77
2023/04/11 01:38:31;;;;;;;1999.90;999.90;;;9.60;99.90;;;;;;6648562;89;20663;-76
2023/04/11 01:48:33;;;;;;;1999.90;999.90;;;9.60;99.90;;;;;;6701857;88;20209;-76
2023/04/11 01:58:33;;;;;;;1999.90;999.90;;;9.70;99.90;;;;;;6700685;88;20259;-77
2023/04/11 02:08:34;;;;;;;1999.90;999.90;;;9.60;99.90;;;;;;6700450;88;20241;-77
2023/04/11 02:18:35;;;;;;;1999.90;999.90;;;9.50;99.90;;;;;;6712632;88;20188;-79
2023/04/11 02:28:36;;;;;;;1999.90;999.90;;;9.40;99.90;;;;;;6706878;88;20205;-78
2023/04/11 02:38:37;;;;;;;1999.90;999.90;;;9.40;99.90;;;;;;6697722;88;20222;-77
2023/04/11 02:48:37;;;;;;;1999.90;999.90;;;9.40;99.90;;;;;;6709303;88;20219;-78
2023/04/11 02:58:40;;;;;;;1999.90;999.90;;;9.20;99.90;;;;;;6711606;88;20185;-77
2023/04/11 03:08:41;;;;;;;1999.90;999.90;;;9.20;99.90;;;;;;6716815;88;20271;-78
2023/04/11 03:18:41;;;;;;;1999.90;999.90;;;9.20;99.90;;;;;;6716555;88;20197;-77
2023/04/11 03:28:42;;;;;;;1999.90;999.90;;;9.00;99.90;;;;;;6716278;88;20584;-77
2023/04/11 03:38:42;;;;;;;1999.90;999.90;;;9.00;99.90;;;;;;6716467;88;20210;-76
2023/04/11 03:48:44;;;;;;;1999.90;999.90;;;8.90;99.90;;;;;;6716143;88;20196;-76
2023/04/11 03:58:45;;;;;;;1999.90;999.90;;;8.90;99.90;;;;;;6717316;88;20690;-77
2023/04/11 04:08:45;;;;;;;1999.90;999.90;;;8.70;99.90;;;;;;6716680;88;20378;-77
2023/04/11 04:18:46;;;;;;;1999.90;999.90;;;8.80;99.90;;;;;;6680123;88;20238;-77
2023/04/11 04:28:46;;;;;;;1999.90;999.90;;;8.70;99.90;;;;;;6705438;88;20206;-77
2023/04/11 04:38:47;;;;;;;1999.90;999.90;;;8.70;99.90;;;;;;6695593;88;20201;-77
2023/04/11 04:48:47;;;;;;;1999.90;999.90;;;8.80;99.90;;;;;;6716486;88;20731;-77
2023/04/11 04:58:48;;;;;;;1999.90;999.90;;;8.80;99.90;;;;;;6715682;88;20194;-77
2023/04/11 05:08:49;;;;;;;1999.90;999.90;;;8.90;99.90;;;;;;6699020;88;20200;-77
2023/04/11 05:18:49;;;;;;;1999.90;999.90;;;8.90;99.90;;;;;;6712333;88;20283;-77
2023/04/11 05:28:50;;;;;;;1999.90;999.90;;;8.80;99.90;;;;;;6715230;88;20209;-78
2023/04/11 05:38:51;;;;;;;1999.90;999.90;;;8.80;99.90;;;;;;6698484;88;20304;-77
2023/04/11 05:48:51;;;;;;;1999.90;999.90;;;8.90;99.90;;;;;;6720293;88;21200;-77
2023/04/11 05:58:52;;;;;;;1999.90;999.90;;;8.90;99.90;;;;;;6701987;88;20189;-77
2023/04/11 06:08:53;;;;;;;1999.90;999.90;;;9.00;99.90;;;;;;6718011;88;21115;-76
2023/04/11 06:18:53;;;;;;;1999.90;999.90;;;9.00;99.90;;;;;;6727021;88;20245;-78
2023/04/11 06:28:54;;;;;;;1999.90;999.90;;;8.90;99.90;;;;;;6717986;88;20224;-77
2023/04/11 06:38:54;;;;;;;1999.90;999.90;;;9.20;99.90;;;;;;6710938;88;20221;-77
2023/04/11 06:48:55;;;;;;;1999.90;999.90;;;9.50;99.90;;;;;;6709009;88;20189;-77
2023/04/11 06:58:55;;;;;;;1999.90;999.90;;;9.60;99.90;;;;;;6719230;88;20563;-78
2023/04/11 07:08:56;;;;;;;1999.90;999.90;;;9.60;99.90;;;;;;6699795;88;20255;-78
2023/04/11 07:18:58;;;;;;;1999.90;999.90;;;9.70;99.90;;;;;;6688291;88;20326;-78
2023/04/11 07:28:59;;;;;;;1999.90;999.90;;;9.70;99.90;;;;;;6713005;88;20246;-77
2023/04/11 07:39:00;;;;;;;1999.90;999.90;;;10.10;99.90;;;;;;6700169;88;20324;-78
2023/04/11 07:49:01;;;;;;;1999.90;999.90;;;10.80;99.90;;;;;;6714503;88;20177;-79
2023/04/11 07:59:02;;;;;;;1999.90;999.90;;;10.80;99.90;;;;;;6718592;88;20262;-78
2023/04/11 08:09:02;;;;;;;1999.90;999.90;;;11.10;99.90;;;;;;6717232;88;20283;-78
2023/04/11 08:19:03;;;;;;;1999.90;999.90;;;11.80;99.90;;;;;;6703067;88;20250;-78
2023/04/11 08:29:03;;;;;;;1999.90;999.90;;;12.00;99.90;;;;;;6719469;77;20205;-75
2023/04/11 08:39:04;;;;;;;1999.90;999.90;;;12.80;99.90;;;;;;6708697;88;20280;-74
2023/04/11 08:49:04;;;;;;;1999.90;999.90;;;11.80;99.90;;;;;;6708677;88;20209;-76
2023/04/11 08:59:05;;;;;;;1999.90;999.90;;;12.50;99.90;;;;;;6708481;88;20291;-76
2023/04/11 09:09:06;;;;;;;1999.90;999.90;;;13.00;99.90;;;;;;6719900;88;20210;-74
2023/04/11 09:19:25;;;;;;;1999.90;999.90;;;13.00;99.90;;;;;;6717538;88;20255;-76
2023/04/11 09:29:55;;;;;;;1999.90;999.90;;;13.30;99.90;;;;;;6708039;88;20669;-75
2023/04/11 09:39:58;;;;;;;1999.90;999.90;;;12.80;99.90;;;;;;6688424;88;20183;-75
2023/04/11 09:49:59;;;;;;;1999.90;999.90;;;12.30;99.80;;;;;;6712308;88;20174;-78
2023/04/11 10:00:09;;;;;;;1999.90;999.90;;;13.80;99.40;;;;;;6710541;88;20249;-78
2023/04/11 10:10:14;;;;;;;1999.90;999.90;;;14.00;98.30;;;;;;6712788;88;20312;-77
2023/04/11 10:20:34;;;;;;;1999.90;999.90;;;14.00;96.70;;;;;;6721210;88;20201;-78
2023/04/11 10:30:43;;;;;;;1999.90;999.90;;;14.70;96.60;;;;;;6716610;88;20909;-77
2023/04/11 10:41:22;;;;;;;1999.90;999.90;;;13.90;96.00;;;;;;6708926;88;20339;-76
2023/04/11 10:51:25;;;;;;;1999.90;999.90;;;15.40;96.70;;;;;;6699625;88;20209;-77
2023/04/11 11:01:26;;;;;;;1999.90;999.90;;;14.40;94.20;;;;;;6716575;88;20178;-77
2023/04/11 11:11:26;;;;;;;1999.90;999.90;;;14.60;93.90;;;;;;6713091;88;20189;-78
2023/04/11 11:21:28;;;;;;;1999.90;999.90;;;13.90;94.70;;;;;;6713049;88;20502;-77
2023/04/11 11:31:47;;;;;;;1999.90;999.90;;;15.20;93.70;;;;;;6717048;88;20270;-77
2023/04/11 11:41:48;;;;;;;1999.90;999.90;;;15.50;93.20;;;;;;6708008;88;20199;-78
2023/04/11 11:51:49;;;;;;;1999.90;999.90;;;15.00;93.10;;;;;;6713115;88;20735;-77
2023/04/11 12:01:49;;;;;;;1999.90;999.90;;;15.80;91.20;;;;;;6715060;88;20633;-78
2023/04/11 12:11:53;;;;;;;1999.90;999.90;;;14.80;92.40;;;;;;6713443;88;20277;-78
2023/04/11 12:21:54;;;;;;;1999.90;999.90;;;16.30;91.30;;;;;;6719272;88;20186;-77
2023/04/11 12:31:54;;;;;;;1999.90;999.90;;;17.80;91.10;;;;;;6704756;88;20182;-78
2023/04/11 12:41:55;;;;;;;1999.90;999.90;;;17.90;87.80;;;;;;6711415;88;20404;-78
2023/04/11 12:51:55;;;;;;;1999.90;999.90;;;18.00;87.40;;;;;;6709897;88;20197;-77
2023/04/11 13:01:56;;;;;;;1999.90;999.90;;;16.70;85.70;;;;;;6711611;88;20185;-78
2023/04/11 13:11:58;;;;;;;1999.90;999.90;;;16.20;88.50;;;;;;6703408;88;20201;-77
2023/04/11 13:21:58;;;;;;;1999.90;999.90;;;17.20;88.30;;;;;;6707894;88;20190;-78
2023/04/11 13:31:59;;;;;;;1999.90;999.90;;;17.80;87.10;;;;;;6710116;88;20178;-78
2023/04/11 13:41:59;;;;;;;1999.90;999.90;;;17.00;84.70;;;;;;6710931;88;20223;-78
2023/04/11 13:52:00;;;;;;;1999.90;999.90;;;17.60;83.60;;;;;;6717819;88;20206;-76
2023/04/11 14:02:01;;;;;;;1999.90;999.90;;;16.30;83.90;;;;;;6717139;88;20272;-78
2023/04/11 14:12:02;;;;;;;1999.90;999.90;;;15.40;86.30;;;;;;6712936;88;20202;-78
2023/04/11 14:22:03;;;;;;;1999.90;999.90;;;15.30;86.30;;;;;;6727058;77;20258;-78
2023/04/11 14:32:05;;;;;;;1999.90;999.90;;;15.20;88.80;;;;;;6724548;88;20552;-77
2023/04/11 14:42:07;;;;;;;1999.90;999.90;;;17.10;84.70;;;;;;6724514;88;20590;-78
2023/04/11 14:52:08;;;;;;;1999.90;999.90;;;16.20;86.10;;;;;;6721611;88;20186;-77
2023/04/11 15:02:09;;;;;;;1999.90;999.90;;;15.80;88.30;;;;;;6721423;88;20295;-77
2023/04/11 15:12:10;;;;;;;1999.90;999.90;;;16.90;89.70;;;;;;6717390;88;20659;-78
2023/04/11 15:22:10;;;;;;;1999.90;999.90;;;16.70;89.30;;;;;;6732364;88;20220;-78
2023/04/11 15:32:11;;;;;;;1999.90;999.90;;;17.40;89.30;;;;;;6733851;88;20206;-76
2023/04/11 15:42:11;;;;;;;1999.90;999.90;;;17.00;89.50;;;;;;6721330;88;20205;-76
2023/04/11 15:52:12;;;;;;;1999.90;999.90;;;16.10;88.20;;;;;;6723161;88;20360;-77
2023/04/11 16:02:13;;;;;;;1999.90;999.90;;;15.40;89.20;;;;;;6718036;88;20218;-77
2023/04/11 16:12:14;;;;;;;1999.90;999.90;;;14.90;90.70;;;;;;6719371;88;20185;-78
2023/04/11 16:22:14;;;;;;;1999.90;999.90;;;15.00;90.40;;;;;;6721872;88;20202;-78
2023/04/11 16:32:15;;;;;;;1999.90;999.90;;;14.40;91.20;;;;;;6723228;88;20193;-76
2023/04/11 16:42:16;;;;;;;1999.90;999.90;;;14.40;91.50;;;;;;6718055;88;20182;-76
2023/04/11 16:52:17;;;;;;;1999.90;999.90;;;14.10;91.70;;;;;;6720400;88;20330;-77
2023/04/11 17:02:17;;;;;;;1999.90;999.90;;;14.00;93.10;;;;;;6715385;88;20202;-77
2023/04/11 17:12:18;;;;;;;1999.90;999.90;;;14.10;93.50;;;;;;6717226;88;20219;-77
2023/04/11 17:22:18;;;;;;;1999.90;999.90;;;13.90;93.50;;;;;;6717767;88;20292;-76
2023/04/11 17:32:20;;;;;;;1999.90;999.90;;;13.50;94.10;;;;;;6724329;88;20280;-77
2023/04/11 17:42:20;;;;;;;1999.90;999.90;;;13.70;94.60;;;;;;6725114;88;20202;-76
2023/04/11 17:52:22;;;;;;;1999.90;999.90;;;13.60;96.10;;;;;;6726265;88;20228;-76
2023/04/11 18:02:24;;;;;;;1999.90;999.90;;;13.10;96.10;;;;;;6722516;88;20189;-78
2023/04/11 18:12:25;;;;;;;1999.90;999.90;;;12.90;96.90;;;;;;6717514;88;20627;-78
2023/04/11 18:22:25;;;;;;;1999.90;999.90;;;12.80;97.60;;;;;;6716099;88;20250;-77
2023/04/11 18:32:27;;;;;;;1999.90;999.90;;;12.50;97.80;;;;;;6713597;88;20241;-77
2023/04/11 18:42:28;;;;;;;1999.90;999.90;;;12.30;98.30;;;;;;6734161;88;20184;-77
2023/04/11 18:52:28;;;;;;;1999.90;999.90;;;12.20;98.90;;;;;;6727092;88;20316;-77
2023/04/11 19:02:29;;;;;;;1999.90;999.90;;;11.90;99.90;;;;;;6726007;88;20644;-77
2023/04/11 19:12:31;;;;;;;1999.90;999.90;;;11.90;99.90;;;;;;6721365;88;20255;-77
2023/04/11 19:22:33;;;;;;;1999.90;999.90;;;11.70;99.10;;;;;;6718853;88;20727;-78
2023/04/11 19:32:37;;;;;;;1999.90;999.90;;;11.60;99.60;;;;;;6722169;88;20188;-77
2023/04/11 19:42:39;;;;;;;1999.90;999.90;;;11.40;98.30;;;;;;6741503;88;20684;-77
2023/04/11 19:52:41;;;;;;;1999.90;999.90;;;11.50;98.10;;;;;;6730397;88;20186;-78
2023/04/11 20:02:44;;;;;;;1999.90;999.90;;;11.40;98.50;;;;;;6720722;88;20229;-78
2023/04/11 20:12:45;;;;;;;1999.90;999.90;;;11.20;98.50;;;;;;6724489;88;20230;-78
2023/04/11 20:22:46;;;;;;;1999.90;999.90;;;11.20;99.20;;;;;;6720507;77;20191;-74
2023/04/11 20:32:47;;;;;;;1999.90;999.90;;;11.30;98.90;;;;;;6696949;88;20381;-74
2023/04/11 20:42:48;;;;;;;1999.90;999.90;;;11.10;99.10;;;;;;6695613;88;20243;-74
2023/04/11 20:52:52;;;;;;;1999.90;999.90;;;11.00;99.40;;;;;;6695555;88;20228;-75
2023/04/11 21:02:52;;;;;;;1999.90;999.90;;;10.90;99.20;;;;;;6697699;88;20306;-75
2023/04/11 21:12:53;;;;;;;1999.90;999.90;;;10.90;99.90;;;;;;6701134;88;20242;-75
2023/04/11 21:22:54;;;;;;;1999.90;999.90;;;10.90;99.80;;;;;;6697238;88;20889;-74
2023/04/11 21:32:54;;;;;;;1999.90;999.90;;;10.80;99.90;;;;;;6700087;88;20194;-74
2023/04/11 21:42:55;;;;;;;1999.90;999.90;;;10.70;99.90;;;;;;6696123;88;21088;-75
2023/04/11 21:52:55;;;;;;;1999.90;999.90;;;10.70;99.90;;;;;;6695250;88;20643;-74
2023/04/11 22:02:56;;;;;;;1999.90;999.90;;;10.60;99.90;;;;;;6700682;88;20177;-74
2023/04/11 22:12:56;;;;;;;1999.90;999.90;;;10.50;99.90;;;;;;6702206;88;20208;-75
2023/04/11 22:22:57;;;;;;;1999.90;999.90;;;10.50;99.90;;;;;;6701465;88;20612;-74
2023/04/11 22:32:57;;;;;;;1999.90;999.90;;;10.50;99.90;;;;;;6696468;88;20252;-75
2023/04/11 22:42:58;;;;;;;1999.90;999.90;;;10.50;99.90;;;;;;6703299;88;20224;-74
2023/04/11 22:53:01;;;;;;;1999.90;999.90;;;10.40;99.90;;;;;;6702331;88;20219;-74
2023/04/11 23:03:02;;;;;;;1999.90;999.90;;;10.40;99.90;;;;;;6699795;88;20186;-75
2023/04/11 23:13:03;;;;;;;1999.90;999.90;;;10.40;99.90;;;;;;6698090;88;20187;-74
2023/04/11 23:23:04;;;;;;;1999.90;999.90;;;10.50;99.90;;;;;;6698807;88;20257;-75
2023/04/11 23:33:07;;;;;;;1999.90;999.90;;;10.70;99.90;;;;;;6693872;88;20508;-74
2023/04/11 23:43:08;;;;;;;1999.90;999.90;;;10.90;99.90;;;;;;6701542;88;20279;-75
2023/04/11 23:53:08;;;;;;;1999.90;999.90;;;10.90;99.90;;;;;;6696508;88;20330;-74
